الصفحة الرئيسية
METAR-TAF:

METAR-TAF

مطار :

Roswell International Air Center

روزويل, نيومكسيكو, الولايات المتحدة

دائرة عرض: 33-18-29N, خط طول: 104-30-28W, ارتفاع: 1118 متر

مراقبة الطقس الحالي

تاريخ ووقت الإصدار 52 دقيقة قبل الساعة 05:51UTC
ريح 7 عقدة من الشرق/الشمال الشرقي
درجة الحرارة -1°درجة مئوية
الرطوبة 64%
ضغط 1026 hPa
الرؤية: 16.1 كم
سماء صافية

METAR: KROW 140551Z AUTO 06007KT 10SM CLR M01/M07 A3030 RMK AO2 SLP252 T10061067 10089 21011 51019

زمن: 23:43 (06:43 UTC)

توقعات

تاريخ ووقت الإصدار 1ساعة و 23 دقيقة قبل الساعة 05:20UTC
التوقعات صالحة من14 الساعة 06 UTC إلى 15 الساعة 06 UTC
ريح 5 عقدة من الشمال
الرؤية: 10 كم
سماء صافية
من 14 الساعة 1900 UTC
ريح 4 عقدةمن اتجاهات متغيرة
الرؤية: 10 كم
سماء صافية

TAF: KROW 140520Z 1406/1506 36005KT P6SM SKC FM141900 VRB04KT P6SM SKC

أرصاد الطقس والتوقعات من أكثر من 4000 مطار (تقارير الطقس للمطار METAR والتنبؤ بالطقس بالمطارTAF).

المحطات المتاحة هي النقط الصفراء والحمراء على الخريطة.

حرك المؤشر فوق النقطة لمعرفة اسم المحطة.

ثم انقر لمعرفة أرصاد وتوقعات الطقس.

لتغيير الخارطة: اضغط على الأزرار الخضراء مع رمز الصليب الأسود للتكبير. على الزر الأخضر مع شرطة للتصغير، أو على الأسهم الخضراء للخرائط المجاورة.


METAR-TAF: